createdAt,value
2023-05-07T00:01:57.242Z,60.36
2023-05-07T00:07:22.546Z,60.23
2023-05-07T00:12:47.429Z,60.08
2023-05-07T00:18:11.652Z,60.21
2023-05-07T00:23:35.504Z,60.40
2023-05-07T00:28:59.937Z,59.83
2023-05-07T00:34:23.968Z,60.11
2023-05-07T00:39:49.337Z,60.17
2023-05-07T00:45:14.954Z,60.25
2023-05-07T00:50:39.125Z,59.84
2023-05-07T00:56:03.859Z,59.62
2023-05-07T01:01:28.354Z,59.97
2023-05-07T01:06:55.812Z,60.22
2023-05-07T01:12:22.028Z,59.97
2023-05-07T01:17:47.097Z,60.12
2023-05-07T01:23:19.579Z,60.02
2023-05-07T01:28:44.055Z,60.21
2023-05-07T01:34:09.822Z,60.36
2023-05-07T01:39:34.889Z,60.05
2023-05-07T01:45:00.201Z,60.04
2023-05-07T01:50:25.248Z,59.98
2023-05-07T01:55:49.500Z,59.79
2023-05-07T02:01:15.204Z,59.75
2023-05-07T02:06:39.846Z,59.77
2023-05-07T02:12:06.682Z,59.79
2023-05-07T02:17:33.200Z,59.68
2023-05-07T02:22:58.581Z,59.70
2023-05-07T02:28:24.035Z,55.27
2023-05-07T02:33:55.221Z,53.60
2023-05-07T02:39:19.563Z,56.45
2023-05-07T02:44:44.192Z,59.95
2023-05-07T02:50:10.677Z,70.64
2023-05-07T02:55:35.339Z,71.59
2023-05-07T03:01:00.556Z,68.08
2023-05-07T03:06:29.817Z,65.85
2023-05-07T03:11:53.911Z,64.54
2023-05-07T03:17:18.360Z,63.35
2023-05-07T03:22:42.827Z,62.57
2023-05-07T03:28:07.745Z,61.73
2023-05-07T03:33:52.221Z,61.87
2023-05-07T03:39:20.380Z,61.73
2023-05-07T03:44:45.411Z,61.44
2023-05-07T03:50:10.702Z,61.39
2023-05-07T03:55:35.718Z,61.45
2023-05-07T04:01:00.523Z,61.18
2023-05-07T04:06:24.682Z,61.01
2023-05-07T04:11:49.136Z,60.88
2023-05-07T04:17:13.954Z,60.84
2023-05-07T04:22:38.387Z,60.80
2023-05-07T04:28:03.596Z,60.80
2023-05-07T04:33:28.748Z,60.97
2023-05-07T04:38:53.816Z,61.14
2023-05-07T04:44:18.214Z,61.32
2023-05-07T04:49:43.119Z,60.97
2023-05-07T04:55:10.084Z,61.02
2023-05-07T05:00:36.940Z,61.00
2023-05-07T05:06:03.075Z,60.92
2023-05-07T05:11:30.389Z,61.23
2023-05-07T05:16:54.849Z,61.33
2023-05-07T05:22:19.136Z,61.14
2023-05-07T05:27:43.540Z,61.11
2023-05-07T05:33:09.000Z,60.96
2023-05-07T05:38:33.880Z,60.62
2023-05-07T05:43:58.763Z,60.42
2023-05-07T05:49:24.329Z,60.67
2023-05-07T05:54:49.123Z,60.62
2023-05-07T06:00:14.984Z,60.40
2023-05-07T06:05:45.279Z,60.15
2023-05-07T06:11:09.923Z,59.98
2023-05-07T06:16:35.316Z,59.77
2023-05-07T06:22:02.780Z,59.60
2023-05-07T06:27:27.338Z,56.77
2023-05-07T06:32:52.471Z,54.47
2023-05-07T06:38:17.623Z,59.96
2023-05-07T06:43:42.699Z,69.00
2023-05-07T06:49:30.628Z,66.18
2023-05-07T06:54:54.845Z,62.25
2023-05-07T07:00:20.814Z,60.51
2023-05-07T07:05:49.032Z,55.70
2023-05-07T07:11:14.394Z,54.43
2023-05-07T07:16:39.538Z,58.43
2023-05-07T07:22:03.450Z,66.29
2023-05-07T07:27:28.061Z,66.46
2023-05-07T07:32:57.166Z,63.55
2023-05-07T07:38:24.505Z,60.58
2023-05-07T07:43:50.164Z,55.28
2023-05-07T07:49:17.132Z,56.19
2023-05-07T07:54:41.967Z,58.53
2023-05-07T08:00:08.533Z,63.21
2023-05-07T08:05:40.673Z,67.67
2023-05-07T08:11:05.780Z,62.98
2023-05-07T08:16:31.246Z,60.44
2023-05-07T08:21:56.927Z,55.62
2023-05-07T08:27:21.483Z,55.05
2023-05-07T08:32:45.757Z,58.84
2023-05-07T08:38:10.738Z,66.13
2023-05-07T08:43:39.280Z,65.09
2023-05-07T08:49:04.255Z,61.71
2023-05-07T08:54:30.622Z,56.34
2023-05-07T08:59:55.851Z,55.93
2023-05-07T09:05:21.616Z,59.63
2023-05-07T09:10:46.021Z,64.83
2023-05-07T09:16:14.965Z,66.99
2023-05-07T09:21:41.253Z,63.42
2023-05-07T09:27:07.290Z,60.60
2023-05-07T09:32:36.209Z,54.76
2023-05-07T09:38:04.450Z,54.17
2023-05-07T09:43:36.835Z,57.08
2023-05-07T09:49:03.854Z,59.29
2023-05-07T09:54:32.040Z,61.61
2023-05-07T09:59:59.597Z,68.23
2023-05-07T10:05:25.950Z,64.10
2023-05-07T10:10:51.220Z,60.52
2023-05-07T10:16:19.755Z,54.89
2023-05-07T10:21:58.367Z,54.50
2023-05-07T10:27:25.066Z,57.13
2023-05-07T10:32:55.382Z,58.95
2023-05-07T10:38:26.636Z,66.46
2023-05-07T10:43:52.192Z,65.21
2023-05-07T10:49:27.617Z,60.94
2023-05-07T10:55:21.375Z,56.16
2023-05-07T11:01:14.171Z,56.10
2023-05-07T11:06:39.497Z,59.01
2023-05-07T11:12:06.824Z,59.83
2023-05-07T11:18:01.221Z,64.75
2023-05-07T11:23:35.666Z,64.78
2023-05-07T11:29:23.481Z,61.48
2023-05-07T11:34:56.994Z,58.96
2023-05-07T11:40:22.688Z,55.23
2023-05-07T11:45:49.364Z,57.52
2023-05-07T11:51:14.591Z,59.28
2023-05-07T11:56:41.184Z,62.51
2023-05-07T12:02:06.036Z,67.65
2023-05-07T12:07:31.253Z,62.74
2023-05-07T12:12:56.850Z,56.31
2023-05-07T12:18:21.559Z,56.66
2023-05-07T12:23:46.936Z,58.50
2023-05-07T12:29:11.668Z,60.41
2023-05-07T12:34:35.682Z,65.73
2023-05-07T12:40:12.618Z,64.51
2023-05-07T12:45:40.998Z,61.12
2023-05-07T12:51:07.604Z,55.58
2023-05-07T12:56:37.971Z,53.19
2023-05-07T13:02:02.777Z,56.74
2023-05-07T13:07:30.687Z,56.80
2023-05-07T13:12:57.784Z,60.41
2023-05-07T13:18:22.918Z,65.03
2023-05-07T13:23:47.587Z,63.00
2023-05-07T13:29:11.784Z,60.35
2023-05-07T13:34:36.433Z,54.35
2023-05-07T13:40:02.916Z,54.44
2023-05-07T13:45:32.785Z,55.27
2023-05-07T13:50:58.403Z,58.21
2023-05-07T13:56:22.705Z,60.45
2023-05-07T14:01:47.144Z,66.44
2023-05-07T14:07:11.530Z,65.03
2023-05-07T14:12:36.700Z,61.40
2023-05-07T14:18:02.186Z,54.84
2023-05-07T14:23:28.195Z,52.41
2023-05-07T14:28:52.128Z,54.66
2023-05-07T14:34:16.595Z,57.77
2023-05-07T14:39:41.066Z,58.83
2023-05-07T14:45:06.887Z,60.01
2023-05-07T14:50:31.401Z,66.70
2023-05-07T14:55:56.754Z,67.35
2023-05-07T15:01:22.825Z,62.95
2023-05-07T15:06:47.871Z,56.03
2023-05-07T15:12:13.015Z,54.63
2023-05-07T15:17:37.357Z,57.61
2023-05-07T15:23:03.785Z,58.61
2023-05-07T15:28:29.647Z,61.44
2023-05-07T15:33:55.645Z,68.52
2023-05-07T15:39:20.625Z,64.44
2023-05-07T15:44:47.793Z,61.06
2023-05-07T15:50:16.236Z,55.60
2023-05-07T15:55:45.556Z,54.48
2023-05-07T16:01:11.680Z,57.70
2023-05-07T16:06:37.138Z,59.31
2023-05-07T16:12:02.379Z,60.59
2023-05-07T16:17:27.187Z,67.44
2023-05-07T16:22:55.519Z,66.36
2023-05-07T16:28:21.893Z,61.35
2023-05-07T16:33:57.160Z,56.54
2023-05-07T16:39:22.843Z,55.40
2023-05-07T16:44:49.058Z,57.63
2023-05-07T16:50:13.632Z,60.50
2023-05-07T16:55:41.187Z,67.26
2023-05-07T17:01:11.902Z,65.86
2023-05-07T17:06:37.454Z,62.09
2023-05-07T17:12:03.171Z,56.38
2023-05-07T17:17:30.946Z,55.64
2023-05-07T17:22:58.900Z,57.14
2023-05-07T17:28:24.379Z,59.59
2023-05-07T17:33:48.827Z,61.20
2023-05-07T17:39:13.737Z,67.41
2023-05-07T17:44:38.179Z,68.66
2023-05-07T17:50:03.300Z,64.83
2023-05-07T17:55:29.724Z,61.34
2023-05-07T18:00:55.936Z,55.00
2023-05-07T18:06:23.042Z,53.41
2023-05-07T18:11:48.201Z,54.15
2023-05-07T18:17:12.739Z,56.12
2023-05-07T18:22:39.582Z,58.01
2023-05-07T18:28:03.732Z,59.67
2023-05-07T18:33:28.045Z,61.03
2023-05-07T18:38:53.964Z,68.77
2023-05-07T18:44:18.934Z,69.18
2023-05-07T18:50:15.792Z,64.08
2023-05-07T18:56:13.355Z,62.01
2023-05-07T19:01:38.131Z,55.85
2023-05-07T19:07:02.475Z,53.15
2023-05-07T19:12:27.113Z,55.09
2023-05-07T19:17:52.182Z,57.56
2023-05-07T19:23:17.170Z,60.70
2023-05-07T19:28:45.472Z,66.28
2023-05-07T19:34:10.380Z,66.63
2023-05-07T19:39:35.472Z,61.09
2023-05-07T19:45:00.404Z,55.23
2023-05-07T19:50:26.237Z,52.61
2023-05-07T19:55:53.258Z,55.87
2023-05-07T20:01:22.115Z,58.46
2023-05-07T20:06:47.251Z,59.59
2023-05-07T20:12:13.724Z,60.33
2023-05-07T20:17:38.532Z,65.33
2023-05-07T20:23:03.308Z,69.11
2023-05-07T20:28:27.779Z,65.08
2023-05-07T20:33:51.895Z,60.13
2023-05-07T20:39:16.550Z,55.04
2023-05-07T20:44:40.739Z,56.27
2023-05-07T20:50:05.146Z,59.96
2023-05-07T20:55:30.719Z,61.50
2023-05-07T21:00:56.107Z,67.58
2023-05-07T21:06:21.084Z,66.35
2023-05-07T21:11:45.516Z,62.28
2023-05-07T21:17:10.490Z,59.34
2023-05-07T21:22:35.984Z,53.31
2023-05-07T21:28:00.382Z,55.02
2023-05-07T21:33:24.462Z,57.84
2023-05-07T21:38:48.364Z,60.97
2023-05-07T21:44:12.313Z,65.86
2023-05-07T21:49:37.446Z,62.67
2023-05-07T21:55:02.717Z,56.01
2023-05-07T22:00:27.480Z,57.07
2023-05-07T22:05:51.749Z,58.99
2023-05-07T22:11:15.844Z,60.63
2023-05-07T22:16:40.402Z,66.31
2023-05-07T22:22:04.780Z,65.55
2023-05-07T22:27:31.622Z,60.36
2023-05-07T22:32:56.419Z,54.84
2023-05-07T22:38:20.641Z,55.68
2023-05-07T22:43:44.765Z,58.83
2023-05-07T22:49:09.067Z,60.40
2023-05-07T22:54:33.766Z,62.44
2023-05-07T22:59:58.547Z,68.13
2023-05-07T23:05:23.795Z,65.87
2023-05-07T23:10:48.833Z,63.79
2023-05-07T23:16:12.969Z,61.27
2023-05-07T23:21:37.333Z,54.56
2023-05-07T23:27:04.964Z,51.16
2023-05-07T23:32:31.371Z,52.00
2023-05-07T23:37:56.484Z,53.63
2023-05-07T23:43:21.524Z,55.52
2023-05-07T23:48:45.448Z,58.12
2023-05-07T23:54:09.613Z,60.30
2023-05-07T23:59:34.922Z,69.53
